| Date | Time | Temp. (oF) | Dew Point (oF) | Rel. Hum. (%) | Press. (in.) | Wind Dir. | Wind Speed (mph) | Hourly Rainfall (in.) |
|
|---|---|---|---|---|---|---|---|---|---|
| 1 | 02/28 | 00:00 | 17 | 2 | 52 | 30.65 | NNW | 5 | 0.00 |
| 2 | 02/27 | 23:00 | 18 | 2 | 51 | 30.63 | N | 8 | 0.00 |
| 3 | 02/27 | 22:00 | 19 | 3 | 50 | 30.60 | WNW | 7 | 0.00 |
| 4 | 02/27 | 21:00 | 20 | 4 | 51 | 30.57 | NNW | 5 | 0.00 |
| 5 | 02/27 | 20:00 | 21 | 8 | 57 | 30.55 | N | 3 | 0.00 |
| 6 | 02/27 | 19:00 | 22 | 8 | 55 | 30.51 | NNW | 0 | 0.00 |
| 7 | 02/27 | 18:00 | 24 | 9 | 53 | 30.47 | WNW | 7 | 0.00 |
| 8 | 02/27 | 17:00 | 25 | 8 | 50 | 30.45 | W | 8 | 0.00 |
| 9 | 02/27 | 16:00 | 24 | 8 | 50 | 30.42 | WNW | 6 | 0.00 |
| 10 | 02/27 | 15:00 | 25 | 8 | 50 | 30.41 | WNW | 9 | 0.00 |
| 11 | 02/27 | 14:00 | 25 | 9 | 51 | 30.41 | N | 10 | 0.00 |
| 12 | 02/27 | 13:00 | 24 | 9 | 54 | 30.41 | WNW | 6 | 0.00 |
| 13 | 02/27 | 12:00 | 22 | 9 | 57 | 30.42 | NNW | 7 | 0.00 |
| 14 | 02/27 | 11:00 | 21 | 9 | 60 | 30.42 | NNE | 7 | 0.00 |
| 15 | 02/27 | 10:00 | 20 | 10 | 66 | 30.41 | NNW | 11 | 0.00 |
| 16 | 02/27 | 09:00 | 19 | 10 | 70 | 30.39 | NNW | 4 | 0.00 |
| 17 | 02/27 | 08:00 | 18 | 12 | 79 | 30.36 | N | 7 | 0.00 |
| 18 | 02/27 | 07:00 | 17 | 14 | 88 | 30.32 | N | 6 | 0.00 |
| 19 | 02/27 | 06:00 | 20 | 15 | 83 | 30.29 | ENE | 4 | 0.00 |
| 20 | 02/27 | 05:00 | 21 | 16 | 81 | 30.25 | N | 6 | 0.00 |
| 21 | 02/27 | 04:00 | 25 | 18 | 75 | 30.21 | NE | 5 | 0.00 |
| 22 | 02/27 | 03:00 | 25 | 16 | 71 | 30.18 | N | 2 | 0.00 |
| 23 | 02/27 | 02:00 | 25 | 18 | 76 | 30.17 | NNW | 2 | 0.00 |
| 24 | 02/27 | 01:00 | 25 | 20 | 84 | 30.15 | NE | 0 | 0.00 |